Nathalie — OJLP — position and weather

sailwx.info

Track history (hours):
 
Tides and Currents Weather Stations Pressure Air Temp Water Temp Dewpoint Dewpoint Depression Visibility Wind Speed Wind Dir Waves Ship Positions

Nathalie

Last reported at 2018-Apr-20 19:30 UTC. Time now 2018-Apr-23 02:11 UTC.
Position N 59°07' E 017°41'.

Length 64 m; draft 3.5 m.

Type: Cargo ship. MMSI: 230987660.

Date/timePositionNaut miles runAvg speedWind from/ knotsBaromVisibWave heightAir tempDewpointWater temp
2018-Apr-20 19:30N 59°07' E 017°41'4 7.2
2018-Apr-20 19:00N 59°03' E 017°42'4 8.7
2018-Apr-20 18:30N 58°59' E 017°43'5 9.1
2018-Apr-20 17:59N 58°54' E 017°43'4 8.9
2018-Apr-20 17:30N 58°50' E 017°44'4 8.4
2018-Apr-20 17:00N 58°46' E 017°48'4 8.5
2018-Apr-20 16:30N 58°43' E 017°52'144 8.9
2018-Apr-20 00:26N 56°19' E 018°12'4 9.0
2018-Apr-20 00:00N 56°16' E 018°15'5 9.0
2018-Apr-19 23:29N 56°12' E 018°19'6 9.0
2018-Apr-19 22:50N 56°07' E 018°24'3 8.7
2018-Apr-19 22:30N 56°04' E 018°27'5 8.9
2018-Apr-19 22:00N 56°00' E 018°31'4 9.0
2018-Apr-19 21:30N 55°56' E 018°34'4 8.9
2018-Apr-19 21:01N 55°52' E 018°38'8 8.9
2018-Apr-19 20:07N 55°45' E 018°45'2 9.0
2018-Apr-19 19:55N 55°44' E 018°46'62 9.1
2018-Apr-19 13:07N 54°49' E 019°38'1 9.1
2018-Apr-19 12:59N 54°48' E 019°39'7 9.0
2018-Apr-19 12:11N 54°42' E 019°45'7 8.5
2018-Apr-19 11:24N 54°38' E 019°54'3 7.0
2018-Apr-19 10:59N 54°38' E 019°59'5 0.2
2018-Apr-18 14:14N 54°39' E 019°51'1 3.1
2018-Apr-18 13:59N 54°39' E 019°50'1 2.4
2018-Apr-18 13:29N 54°39' E 019°49'0 0.0
2018-Apr-18 12:19N 54°38' E 019°49'0 0.0
2018-Apr-18 11:46N 54°38' E 019°49'0 0.0
2018-Apr-18 08:58N 54°38' E 019°49'2 0.0
2018-Apr-16 20:03N 54°40' E 019°46'0 8.9
2018-Apr-16 20:00N 54°40' E 019°46'4 8.7
2018-Apr-16 19:30N 54°42' E 019°39'4 8.7
2018-Apr-16 19:00N 54°42' E 019°32'4 8.7
2018-Apr-16 18:30N 54°42' E 019°24'4 8.7
2018-Apr-16 18:00N 54°42' E 019°17'4 8.9
2018-Apr-16 17:31N 54°41' E 019°09'4 8.7
2018-Apr-16 17:00N 54°41' E 019°02'3 5.2
2018-Apr-16 16:30N 54°40' E 018°58'4 8.4
2018-Apr-16 16:00N 54°36' E 018°54'4 8.2
2018-Apr-16 15:30N 54°33' E 018°50'4 8.5
2018-Apr-16 15:00N 54°30' E 018°45'4 8.5
2018-Apr-16 14:30N 54°27' E 018°40'3 6.0
2018-Apr-16 14:00N 54°24' E 018°40'2 4.5
2018-Apr-16 13:31N 54°21' E 018°41'0 0.0
2018-Apr-16 12:59N 54°21' E 018°41'0 0.0
2018-Apr-16 12:29N 54°21' E 018°41'0 0.0
2018-Apr-16 11:59N 54°21' E 018°41'0 0.0
2018-Apr-16 11:29N 54°21' E 018°41'0 0.0
2018-Apr-16 10:59N 54°21' E 018°41'0 0.0
2018-Apr-16 10:29N 54°21' E 018°41'0 0.0
2018-Apr-16 09:59N 54°21' E 018°41'0 0.0
2018-Apr-16 09:29N 54°21' E 018°41'0 0.0
2018-Apr-16 08:59N 54°21' E 018°41'0 0.0
2018-Apr-16 08:29N 54°21' E 018°41'0 0.0
2018-Apr-16 07:59N 54°21' E 018°41'0 0.0
2018-Apr-16 07:29N 54°21' E 018°41'0 0.0
2018-Apr-16 06:59N 54°21' E 018°41'0 0.0
2018-Apr-16 06:29N 54°21' E 018°41'0 0.0
2018-Apr-16 05:59N 54°21' E 018°41'0 0.0
2018-Apr-16 05:29N 54°21' E 018°41'0 0.0
2018-Apr-16 05:00N 54°21' E 018°41'2 3.5
2018-Apr-16 04:30N 54°23' E 018°40'3 5.7
2018-Apr-16 04:00N 54°26' E 018°39'1 1.1
2018-Apr-16 03:29N 54°26' E 018°39'0 0.0
2018-Apr-16 02:59N 54°26' E 018°39'0 0.0
2018-Apr-16 02:29N 54°26' E 018°39'0 0.0
2018-Apr-16 01:59N 54°26' E 018°39'0 0.0
2018-Apr-16 01:29N 54°26' E 018°39'0 0.0
2018-Apr-16 00:59N 54°26' E 018°39'0 0.0
2018-Apr-16 00:29N 54°26' E 018°39'0 0.0
2018-Apr-15 23:59N 54°26' E 018°39'0 0.0
2018-Apr-15 23:29N 54°26' E 018°39'0 0.0
2018-Apr-15 22:59N 54°26' E 018°39'0 0.0
2018-Apr-15 22:29N 54°26' E 018°39'0 0.0
2018-Apr-15 21:59N 54°26' E 018°39'0 0.0
2018-Apr-15 21:29N 54°26' E 018°39'0 0.0
2018-Apr-15 20:59N 54°26' E 018°39'0 0.0
2018-Apr-15 20:29N 54°26' E 018°39'0 0.0
2018-Apr-15 19:59N 54°26' E 018°39'0 0.0
2018-Apr-15 19:29N 54°26' E 018°39'0 0.0
2018-Apr-15 18:58N 54°26' E 018°39'0 0.0
2018-Apr-15 18:28N 54°26' E 018°39'0 0.1
2018-Apr-15 17:58N 54°26' E 018°39'0 0.0
2018-Apr-15 17:28N 54°26' E 018°39'0 0.0
2018-Apr-15 16:58N 54°26' E 018°39'0 0.0
2018-Apr-15 16:28N 54°26' E 018°39'0 0.0
2018-Apr-15 15:58N 54°26' E 018°39'0 0.1
2018-Apr-15 15:28N 54°26' E 018°39'0 0.0
2018-Apr-15 14:58N 54°26' E 018°39'0 0.0
2018-Apr-15 14:28N 54°26' E 018°39'0 0.0
2018-Apr-15 13:58N 54°26' E 018°39'0 0.0
2018-Apr-15 13:28N 54°26' E 018°39'0 0.0
2018-Apr-15 12:58N 54°26' E 018°39'0 0.0
2018-Apr-15 12:28N 54°26' E 018°39'0 0.0
2018-Apr-15 11:58N 54°26' E 018°39'0 0.0
2018-Apr-15 11:28N 54°26' E 018°39'0 0.0
2018-Apr-15 10:58N 54°26' E 018°39'0 0.0
2018-Apr-15 10:28N 54°26' E 018°39'0 0.0
2018-Apr-15 09:58N 54°26' E 018°39'0 0.0
2018-Apr-15 09:28N 54°26' E 018°39'0 0.0
2018-Apr-15 08:58N 54°26' E 018°39'0 0.0
2018-Apr-15 08:28N 54°26' E 018°39'0 0.2
2018-Apr-15 08:00N 54°26' E 018°39'3 6.4
2018-Apr-15 07:30N 54°29' E 018°43'4 8.7
2018-Apr-15 07:00N 54°32' E 018°48'4 8.5
2018-Apr-15 06:30N 54°35' E 018°52'4 8.3
2018-Apr-15 06:00N 54°39' E 018°56'4 8.5
2018-Apr-15 05:30N 54°42' E 019°00'4 8.8
2018-Apr-15 05:00N 54°45' E 019°06'4 8.7
2018-Apr-15 04:30N 54°48' E 019°12'4 8.6
2018-Apr-15 04:00N 54°51' E 019°17'4 8.8
2018-Apr-15 03:30N 54°54' E 019°23'4 8.7
2018-Apr-15 03:00N 54°57' E 019°29'4 8.6
2018-Apr-15 02:31N 54°59' E 019°35'24 0.9
2018-Apr-13 23:23N 55°13' E 019°01'4 9.1
2018-Apr-13 23:00N 55°12' E 018°55'7 9.1
2018-Apr-13 22:15N 55°09' E 018°44'3 9.0
2018-Apr-13 21:54N 55°07' E 018°39'4 8.8
2018-Apr-13 21:30N 55°06' E 018°34'4 8.6
2018-Apr-13 21:00N 55°04' E 018°27'4 8.7
2018-Apr-13 20:30N 55°03' E 018°20'4 8.4
2018-Apr-13 20:00N 55°01' E 018°13'4 7.9
2018-Apr-13 19:29N 54°59' E 018°06'150 6.3
2018-Apr-12 19:49N 53°33' E 014°36'3 9.4
2018-Apr-12 19:28N 53°30' E 014°38'5 9.1
2018-Apr-12 18:58N 53°26' E 014°35'0 0.7
2018-Apr-12 18:28N 53°25' E 014°35'0 0.0
2018-Apr-12 18:00N 53°25' E 014°35'0 0.0
2018-Apr-12 17:30N 53°25' E 014°35'0 0.0
2018-Apr-12 17:00N 53°25' E 014°35'0 0.0
2018-Apr-12 16:30N 53°25' E 014°35'0 0.0
2018-Apr-12 16:00N 53°25' E 014°35'0 0.0
2018-Apr-12 15:30N 53°25' E 014°35'0 0.0
2018-Apr-12 14:57N 53°25' E 014°35'0 0.0
2018-Apr-12 14:27N 53°25' E 014°35'0 0.0
2018-Apr-12 14:00N 53°25' E 014°35'0 0.0
2018-Apr-12 13:27N 53°25' E 014°35'0 0.0
2018-Apr-12 12:57N 53°25' E 014°35'0 0.0
2018-Apr-12 12:27N 53°25' E 014°35'0 0.0
2018-Apr-12 11:57N 53°25' E 014°35'0 0.0
2018-Apr-12 11:27N 53°25' E 014°35'0 0.0
2018-Apr-12 11:00N 53°25' E 014°35'0 0.0
2018-Apr-12 10:27N 53°25' E 014°35'0 0.0
2018-Apr-12 09:42N 53°25' E 014°35'0 0.0
2018-Apr-12 09:30N 53°25' E 014°35'0 0.0
2018-Apr-12 09:00N 53°25' E 014°35'0 0.0
2018-Apr-12 08:30N 53°25' E 014°35'0 0.0
2018-Apr-12 08:00N 53°25' E 014°35'0 0.0
2018-Apr-12 07:30N 53°25' E 014°35'0 0.0
2018-Apr-12 06:57N 53°25' E 014°35'0 0.0
2018-Apr-12 06:18N 53°25' E 014°35'0 0.0
2018-Apr-12 06:00N 53°25' E 014°35'0 0.0
2018-Apr-12 05:30N 53°25' E 014°35'0 0.0
2018-Apr-12 05:00N 53°25' E 014°35'0 0.0
2018-Apr-12 04:30N 53°25' E 014°35'0 0.0
2018-Apr-12 04:00N 53°25' E 014°35'0 0.0
2018-Apr-12 03:24N 53°25' E 014°35'0 0.0
2018-Apr-12 02:57N 53°25' E 014°35'0 0.0
2018-Apr-12 02:27N 53°25' E 014°35'0 0.0
2018-Apr-12 02:00N 53°25' E 014°35'0 0.0
2018-Apr-12 01:27N 53°25' E 014°35'0 0.0
2018-Apr-12 01:00N 53°25' E 014°35'0 0.0
2018-Apr-12 00:27N 53°25' E 014°35'0 0.0
2018-Apr-11 23:57N 53°25' E 014°35'0 0.0
2018-Apr-11 23:30N 53°25' E 014°35'0 0.0
2018-Apr-11 23:00N 53°25' E 014°35'0 0.0
2018-Apr-11 22:30N 53°25' E 014°35'0 0.0
2018-Apr-11 22:00N 53°25' E 014°35'0 0.0
2018-Apr-11 21:30N 53°25' E 014°35'0 0.0
2018-Apr-11 21:00N 53°25' E 014°35'0 0.0
2018-Apr-11 20:30N 53°25' E 014°35'0 0.0
2018-Apr-11 19:57N 53°25' E 014°35'0 0.0
2018-Apr-11 19:30N 53°25' E 014°35'0 0.0
2018-Apr-11 19:00N 53°25' E 014°35'0 0.2
2018-Apr-11 18:28N 53°26' E 014°35'3 6.8
2018-Apr-11 17:58N 53°29' E 014°37'5 8.3
2018-Apr-11 17:25N 53°33' E 014°36'4 9.1
2018-Apr-11 16:59N 53°37' E 014°35'4 9.1
2018-Apr-11 16:31N 53°41' E 014°31'  
Track history (hours):
 
Tides and Currents Weather Stations Pressure Air Temp Water Temp Dewpoint Dewpoint Depression Visibility Wind Speed Wind Dir Waves Ship Positions

Nathalie

Last reported at 2018-Apr-20 19:30 UTC. Time now 2018-Apr-23 02:11 UTC.
Position N 59°07' E 017°41'.

Length 64 m; draft 3.5 m.

Type: Cargo ship. MMSI: 230987660.

Date/timePositionNaut miles runAvg speedWind from/ knotsBaromVisibWave heightAir tempDewpointWater temp
2018-Apr-20 19:30N 59°07' E 017°41'4 7.2
2018-Apr-20 19:00N 59°03' E 017°42'4 8.7
2018-Apr-20 18:30N 58°59' E 017°43'5 9.1
2018-Apr-20 17:59N 58°54' E 017°43'4 8.9
2018-Apr-20 17:30N 58°50' E 017°44'4 8.4
2018-Apr-20 17:00N 58°46' E 017°48'4 8.5
2018-Apr-20 16:30N 58°43' E 017°52'144 8.9
2018-Apr-20 00:26N 56°19' E 018°12'4 9.0
2018-Apr-20 00:00N 56°16' E 018°15'5 9.0
2018-Apr-19 23:29N 56°12' E 018°19'6 9.0
2018-Apr-19 22:50N 56°07' E 018°24'3 8.7
2018-Apr-19 22:30N 56°04' E 018°27'5 8.9
2018-Apr-19 22:00N 56°00' E 018°31'4 9.0
2018-Apr-19 21:30N 55°56' E 018°34'4 8.9
2018-Apr-19 21:01N 55°52' E 018°38'8 8.9
2018-Apr-19 20:07N 55°45' E 018°45'2 9.0
2018-Apr-19 19:55N 55°44' E 018°46'62 9.1
2018-Apr-19 13:07N 54°49' E 019°38'1 9.1
2018-Apr-19 12:59N 54°48' E 019°39'7 9.0
2018-Apr-19 12:11N 54°42' E 019°45'7 8.5
2018-Apr-19 11:24N 54°38' E 019°54'3 7.0
2018-Apr-19 10:59N 54°38' E 019°59'5 0.2
2018-Apr-18 14:14N 54°39' E 019°51'1 3.1
2018-Apr-18 13:59N 54°39' E 019°50'1 2.4
2018-Apr-18 13:29N 54°39' E 019°49'0 0.0
2018-Apr-18 12:19N 54°38' E 019°49'0 0.0
2018-Apr-18 11:46N 54°38' E 019°49'0 0.0
2018-Apr-18 08:58N 54°38' E 019°49'2 0.0
2018-Apr-16 20:03N 54°40' E 019°46'0 8.9
2018-Apr-16 20:00N 54°40' E 019°46'4 8.7
2018-Apr-16 19:30N 54°42' E 019°39'4 8.7
2018-Apr-16 19:00N 54°42' E 019°32'4 8.7
2018-Apr-16 18:30N 54°42' E 019°24'4 8.7
2018-Apr-16 18:00N 54°42' E 019°17'4 8.9
2018-Apr-16 17:31N 54°41' E 019°09'4 8.7
2018-Apr-16 17:00N 54°41' E 019°02'3 5.2
2018-Apr-16 16:30N 54°40' E 018°58'4 8.4
2018-Apr-16 16:00N 54°36' E 018°54'4 8.2
2018-Apr-16 15:30N 54°33' E 018°50'4 8.5
2018-Apr-16 15:00N 54°30' E 018°45'4 8.5
2018-Apr-16 14:30N 54°27' E 018°40'3 6.0
2018-Apr-16 14:00N 54°24' E 018°40'2 4.5
2018-Apr-16 13:31N 54°21' E 018°41'0 0.0
2018-Apr-16 12:59N 54°21' E 018°41'0 0.0
2018-Apr-16 12:29N 54°21' E 018°41'0 0.0
2018-Apr-16 11:59N 54°21' E 018°41'0 0.0
2018-Apr-16 11:29N 54°21' E 018°41'0 0.0
2018-Apr-16 10:59N 54°21' E 018°41'0 0.0
2018-Apr-16 10:29N 54°21' E 018°41'0 0.0
2018-Apr-16 09:59N 54°21' E 018°41'0 0.0
2018-Apr-16 09:29N 54°21' E 018°41'0 0.0
2018-Apr-16 08:59N 54°21' E 018°41'0 0.0
2018-Apr-16 08:29N 54°21' E 018°41'0 0.0
2018-Apr-16 07:59N 54°21' E 018°41'0 0.0
2018-Apr-16 07:29N 54°21' E 018°41'0 0.0
2018-Apr-16 06:59N 54°21' E 018°41'0 0.0
2018-Apr-16 06:29N 54°21' E 018°41'0 0.0
2018-Apr-16 05:59N 54°21' E 018°41'0 0.0
2018-Apr-16 05:29N 54°21' E 018°41'0 0.0
2018-Apr-16 05:00N 54°21' E 018°41'2 3.5
2018-Apr-16 04:30N 54°23' E 018°40'3 5.7
2018-Apr-16 04:00N 54°26' E 018°39'1 1.1
2018-Apr-16 03:29N 54°26' E 018°39'0 0.0
2018-Apr-16 02:59N 54°26' E 018°39'0 0.0
2018-Apr-16 02:29N 54°26' E 018°39'0 0.0
2018-Apr-16 01:59N 54°26' E 018°39'0 0.0
2018-Apr-16 01:29N 54°26' E 018°39'0 0.0
2018-Apr-16 00:59N 54°26' E 018°39'0 0.0
2018-Apr-16 00:29N 54°26' E 018°39'0 0.0
2018-Apr-15 23:59N 54°26' E 018°39'0 0.0
2018-Apr-15 23:29N 54°26' E 018°39'0 0.0
2018-Apr-15 22:59N 54°26' E 018°39'0 0.0
2018-Apr-15 22:29N 54°26' E 018°39'0 0.0
2018-Apr-15 21:59N 54°26' E 018°39'0 0.0
2018-Apr-15 21:29N 54°26' E 018°39'0 0.0
2018-Apr-15 20:59N 54°26' E 018°39'0 0.0
2018-Apr-15 20:29N 54°26' E 018°39'0 0.0
2018-Apr-15 19:59N 54°26' E 018°39'0 0.0
2018-Apr-15 19:29N 54°26' E 018°39'0 0.0
2018-Apr-15 18:58N 54°26' E 018°39'0 0.0
2018-Apr-15 18:28N 54°26' E 018°39'0 0.1
2018-Apr-15 17:58N 54°26' E 018°39'0 0.0
2018-Apr-15 17:28N 54°26' E 018°39'0 0.0
2018-Apr-15 16:58N 54°26' E 018°39'0 0.0
2018-Apr-15 16:28N 54°26' E 018°39'0 0.0
2018-Apr-15 15:58N 54°26' E 018°39'0 0.1
2018-Apr-15 15:28N 54°26' E 018°39'0 0.0
2018-Apr-15 14:58N 54°26' E 018°39'0 0.0
2018-Apr-15 14:28N 54°26' E 018°39'0 0.0
2018-Apr-15 13:58N 54°26' E 018°39'0 0.0
2018-Apr-15 13:28N 54°26' E 018°39'0 0.0
2018-Apr-15 12:58N 54°26' E 018°39'0 0.0
2018-Apr-15 12:28N 54°26' E 018°39'0 0.0
2018-Apr-15 11:58N 54°26' E 018°39'0 0.0
2018-Apr-15 11:28N 54°26' E 018°39'0 0.0
2018-Apr-15 10:58N 54°26' E 018°39'0 0.0
2018-Apr-15 10:28N 54°26' E 018°39'0 0.0
2018-Apr-15 09:58N 54°26' E 018°39'0 0.0
2018-Apr-15 09:28N 54°26' E 018°39'0 0.0
2018-Apr-15 08:58N 54°26' E 018°39'0 0.0
2018-Apr-15 08:28N 54°26' E 018°39'0 0.2
2018-Apr-15 08:00N 54°26' E 018°39'3 6.4
2018-Apr-15 07:30N 54°29' E 018°43'4 8.7
2018-Apr-15 07:00N 54°32' E 018°48'4 8.5
2018-Apr-15 06:30N 54°35' E 018°52'4 8.3
2018-Apr-15 06:00N 54°39' E 018°56'4 8.5
2018-Apr-15 05:30N 54°42' E 019°00'4 8.8
2018-Apr-15 05:00N 54°45' E 019°06'4 8.7
2018-Apr-15 04:30N 54°48' E 019°12'4 8.6
2018-Apr-15 04:00N 54°51' E 019°17'4 8.8
2018-Apr-15 03:30N 54°54' E 019°23'4 8.7
2018-Apr-15 03:00N 54°57' E 019°29'4 8.6
2018-Apr-15 02:31N 54°59' E 019°35'24 0.9
2018-Apr-13 23:23N 55°13' E 019°01'4 9.1
2018-Apr-13 23:00N 55°12' E 018°55'7 9.1
2018-Apr-13 22:15N 55°09' E 018°44'3 9.0
2018-Apr-13 21:54N 55°07' E 018°39'4 8.8
2018-Apr-13 21:30N 55°06' E 018°34'4 8.6
2018-Apr-13 21:00N 55°04' E 018°27'4 8.7
2018-Apr-13 20:30N 55°03' E 018°20'4 8.4
2018-Apr-13 20:00N 55°01' E 018°13'4 7.9
2018-Apr-13 19:29N 54°59' E 018°06'150 6.3
2018-Apr-12 19:49N 53°33' E 014°36'3 9.4
2018-Apr-12 19:28N 53°30' E 014°38'5 9.1
2018-Apr-12 18:58N 53°26' E 014°35'0 0.7
2018-Apr-12 18:28N 53°25' E 014°35'0 0.0
2018-Apr-12 18:00N 53°25' E 014°35'0 0.0
2018-Apr-12 17:30N 53°25' E 014°35'0 0.0
2018-Apr-12 17:00N 53°25' E 014°35'0 0.0
2018-Apr-12 16:30N 53°25' E 014°35'0 0.0
2018-Apr-12 16:00N 53°25' E 014°35'0 0.0
2018-Apr-12 15:30N 53°25' E 014°35'0 0.0
2018-Apr-12 14:57N 53°25' E 014°35'0 0.0
2018-Apr-12 14:27N 53°25' E 014°35'0 0.0
2018-Apr-12 14:00N 53°25' E 014°35'0 0.0
2018-Apr-12 13:27N 53°25' E 014°35'0 0.0
2018-Apr-12 12:57N 53°25' E 014°35'0 0.0
2018-Apr-12 12:27N 53°25' E 014°35'0 0.0
2018-Apr-12 11:57N 53°25' E 014°35'0 0.0
2018-Apr-12 11:27N 53°25' E 014°35'0 0.0
2018-Apr-12 11:00N 53°25' E 014°35'0 0.0
2018-Apr-12 10:27N 53°25' E 014°35'0 0.0
2018-Apr-12 09:42N 53°25' E 014°35'0 0.0
2018-Apr-12 09:30N 53°25' E 014°35'0 0.0
2018-Apr-12 09:00N 53°25' E 014°35'0 0.0
2018-Apr-12 08:30N 53°25' E 014°35'0 0.0
2018-Apr-12 08:00N 53°25' E 014°35'0 0.0
2018-Apr-12 07:30N 53°25' E 014°35'0 0.0
2018-Apr-12 06:57N 53°25' E 014°35'0 0.0
2018-Apr-12 06:18N 53°25' E 014°35'0 0.0
2018-Apr-12 06:00N 53°25' E 014°35'0 0.0
2018-Apr-12 05:30N 53°25' E 014°35'0 0.0
2018-Apr-12 05:00N 53°25' E 014°35'0 0.0
2018-Apr-12 04:30N 53°25' E 014°35'0 0.0
2018-Apr-12 04:00N 53°25' E 014°35'0 0.0
2018-Apr-12 03:24N 53°25' E 014°35'0 0.0
2018-Apr-12 02:57N 53°25' E 014°35'0 0.0
2018-Apr-12 02:27N 53°25' E 014°35'0 0.0
2018-Apr-12 02:00N 53°25' E 014°35'0 0.0
2018-Apr-12 01:27N 53°25' E 014°35'0 0.0
2018-Apr-12 01:00N 53°25' E 014°35'0 0.0
2018-Apr-12 00:27N 53°25' E 014°35'0 0.0
2018-Apr-11 23:57N 53°25' E 014°35'0 0.0
2018-Apr-11 23:30N 53°25' E 014°35'0 0.0
2018-Apr-11 23:00N 53°25' E 014°35'0 0.0
2018-Apr-11 22:30N 53°25' E 014°35'0 0.0
2018-Apr-11 22:00N 53°25' E 014°35'0 0.0
2018-Apr-11 21:30N 53°25' E 014°35'0 0.0
2018-Apr-11 21:00N 53°25' E 014°35'0 0.0
2018-Apr-11 20:30N 53°25' E 014°35'0 0.0
2018-Apr-11 19:57N 53°25' E 014°35'0 0.0
2018-Apr-11 19:30N 53°25' E 014°35'0 0.0
2018-Apr-11 19:00N 53°25' E 014°35'0 0.2
2018-Apr-11 18:28N 53°26' E 014°35'3 6.8
2018-Apr-11 17:58N 53°29' E 014°37'5 8.3
2018-Apr-11 17:25N 53°33' E 014°36'4 9.1
2018-Apr-11 16:59N 53°37' E 014°35'4 9.1
2018-Apr-11 16:31N 53°41' E 014°31'  

Dump ship's entire track history